KGEGCYKA

Guest
Details From KGEG - Spokane Intl
To CYKA - Kamloops
Flight Number -
Tags decoded
Created
Modified
Stats Distance 217 nm / 403 km
Max Altitude 0 ft / 0 m
Waypoints 2
Social Downloads 0
Likes 0
Share VATSIM

Download

Looking for another format? Having issues loading an existing format? Contact us
Advertisement - Login to hide

Notes

Requested: KGEG CYKA

Route

KGEG CYKA

ID Type Via Altitude Latitude Longitude Leg Dist Tot Dist Heading (true) Name
O KGEG APT - 0 ft / 0 m 47.61972˚ -117.53396˚ - 0 nm - Spokane Intl
O CYKA APT - 0 ft / 0 m 50.70187˚ -120.44271˚ 217 nm 217 nm 329° / 327° Kamloops

Altitude Profile

Advertisement - Login to hide

Weather


0- 5 10 15 20 25 30 35+ Temperature / ° C

Clouds and Precipitation
Forecast for 2018-06-18 18:00 UTC. Updated 6 hours ago

Ground ~20,000 ft ~40,000 ft Winds

KGEG

Details ICAO KGEG (GEG)
Name Spokane Intl
Region United States
Timezone America/Los_Angeles (UTC-7.0)
Stats Elevation 2,376 ft / 724 m (AMSL)
Location 47.619718° -117.533965°
Runways 2
Magnetic Variation 14.519° E

METAR

KGEG 182053Z 06010KT 10SM BKN075 BKN180 22/07 A2999 RMK AO2 SLP142 T02170072 53005

Decode

TAF

KGEG 181735Z 1818/1918 05005KT P6SM SCT070 OVC090 FM182100 05010G15KT P6SM VCSH OVC070 FM190000 06006KT P6SM VCSH OVC090 FM190600 03004KT P6SM SCT100 OVC150

Decode

Departure Runways

ID Width Length Bearing (true) Bearing (mag) Surface Threshold Offset Overrun Length
03 150 ft / 46 m 8,989 ft / 2,740 m 45.41° 30.89° Asphalt 0 ft / 0 m 1,001 ft / 305 m
07 150 ft / 46 m 8,176 ft / 2,492 m 90.49° 75.97° Asphalt 0 ft / 0 m 0 ft / 0 m
21 150 ft / 46 m 8,989 ft / 2,740 m 225.42° 210.90° Asphalt 0 ft / 0 m 1,001 ft / 305 m
25 150 ft / 46 m 8,176 ft / 2,492 m 270.52° 256.00° Asphalt 0 ft / 0 m 98 ft / 30 m

CYKA

Details ICAO CYKA (YKA)
Name Kamloops
Region Canada
Timezone America/Vancouver (UTC-7.0)
Stats Elevation 1,133 ft / 345 m (AMSL)
Location 50.701875° -120.442709°
Runways 2
Magnetic Variation 15.998° E

METAR

CYKA 182100Z VRB02KT 40SM FEW100 32/04 A2989 RMK AC1 AC TR SLP118 DENSITY ALT 3400FT

Decode

TAF

TAF CYKA 181838Z 1819/1907 20005KT P6SM FEW070 BECMG 1822/1824 09007KT RMK NXT FCST BY 190100Z

Decode

Destination Runways

ID Width Length Bearing (true) Bearing (mag) Surface Threshold Offset Overrun Length
04 49 ft / 15 m 2,815 ft / 858 m 61.02° 45.02° Asphalt 686 ft / 209 m 0 ft / 0 m
08 148 ft / 45 m 5,999 ft / 1,828 m 103.28° 87.28° Asphalt 0 ft / 0 m 0 ft / 0 m
22 49 ft / 15 m 2,815 ft / 858 m 241.03° 225.03° Asphalt 0 ft / 0 m 0 ft / 0 m
26 148 ft / 45 m 5,999 ft / 1,828 m 283.30° 267.30° Asphalt 0 ft / 0 m 0 ft / 0 m

Approach Navaids

Runway Type Ident Frequency Range Bearing (true) Bearing (mag) Slope Elevation
26 Localiser XPP 109.90 MHz 18 nm / 33 km 285.00° 269.00° - 1,133 ft / 345 m (AMSL)

Popular Alternatives